x

Western Caribbean - 195 Nm Wsw Of Negril Jamiaca (42057) Wave Buoy

1:50pm - Wed 23rd Apr 2014 All times are UTC.

  • Sig Wave height 2.0ft
  • Swell Direction
  • Peak Period 8s
  • Average Period 6s
  • Wind
    4mph, 7mph gusts
  • Sea Temp 82°f
  • Air Temp 81°f
  • Sea Pressure 1014.1mb

More Historic Weather Station data

Upgrade to MSW Pro to gain access to the past 30 days of data for over 8000 Wavebouys and Weather Stations around the globe.

Join Pro

Comparision Forecast

View Surf forecast
   
Wed 04/23 1:50pm 2ft 8s 6s 4 7 mph 1014.1mb 82f 81f
12:50pm 1.6ft 8s 6s 7 9 mph 1013.4mb 82f 80f
11:50am 1.6ft 8s 6s 7 9 mph 1012.7mb 82f 81f
10:50am 1.6ft 8s 6s 7 9 mph 1012.2mb 82f 80f
9:50am 2ft 8s 6s 4 7 mph 1011.9mb 82f 80f
8:50am 2ft 8s 6s 7 9 mph 1011.6mb 83f 80f
7:50am 2ft 8s 6s 2 4 mph 1012mb 83f 81f
6:50am 2ft 8s 6s  -  2 mph 1012.3mb 83f 81f
5:50am 2.5ft 8s 6s 2 4 mph 1012.9mb 83f 81f
4:50am 2.5ft 8s 6s 2 4 mph 1013.1mb 83f 81f
3:50am 2.5ft 8s 6s 2
mph
1013.2mb 83f 81f
2:50am 2.5ft 8s 6s 2 4 mph 1013.3mb 83f 82f
1:50am 2.5ft 8s 6s 2
mph
1012.8mb 83f 82f
12:50am 2.5ft 8s 6s 4
mph
1011.9mb 84f 82f
Tue 04/22 11:50pm 2.5ft 8s 6s 4 7 mph 1011.5mb 85f 82f
10:50pm 2.5ft 8s 6s 2 4 mph 1011.1mb 86f 83f
9:50pm 2.5ft 8s 6s 2 4 mph 1011.1mb 87f 83f
8:50pm 2.5ft 8s 6s 2
mph
1011.2mb 87f 83f
7:50pm 2.5ft 8s 6s  -  2 mph 1011.4mb 87f 83f
6:50pm 2.5ft 8s 6s 2
mph
1012mb 86f 82f
5:50pm 2.5ft 9s 6s 4
mph
1013mb 85f 82f
4:50pm 2.5ft 8s 6s 4 7 mph 1013.4mb 84f 82f
3:50pm 2.5ft 8s 6s 4
mph
1013.8mb 83f 81f
2:50pm 2.5ft 8s 6s 7 9 mph 1013.8mb 83f 81f
1:50pm 2ft 8s 6s 7 9 mph 1013.4mb 82f 81f
12:50pm 2ft 7s 5s 7 9 mph 1012.8mb 82f 81f
11:50am 2ft 8s 5s 7 9 mph 1012.3mb 82f 81f
10:50am 2.5ft 8s 6s 7
mph
1012mb 83f 80f
9:50am 2.5ft 8s 6s 7 9 mph 1011.7mb 83f 81f
8:50am 2.5ft 8s 6s 4 7 mph 1011.6mb 83f 80f
7:50am 2.5ft 8s 6s 4 7 mph 1012.1mb 83f 80f
6:50am 2.5ft 8s 6s 7
mph
1012.6mb 83f 80f
5:50am 2.5ft 8s 6s 9 11 mph 1013.3mb 82f 80f
4:50am 2.5ft 8s 6s 7
mph
1013.9mb 82f 81f
3:50am 2.5ft 8s 6s 7 9 mph 1014.1mb 82f 82f
2:50am 2.5ft 8s 6s 7 9 mph 1013.9mb 82f 82f
1:50am 2.5ft 8s 6s 7 9 mph 1013.5mb 82f 82f
12:50am 2.5ft 8s 5s 7 9 mph 1013.2mb 83f 81f
Mon 04/21 11:50pm 3ft 8s 5s 4
mph
1012.7mb 83f 81f
10:50pm 3ft 8s 5s  -  2 mph 1012.6mb 83f 80f
9:50pm 3.5ft 8s 6s 4 7 mph 1012.5mb 83f 79f
8:50pm 3.5ft 8s 6s 7 11 mph 1012.5mb 84f 81f
7:50pm 4ft 8s 6s 9
mph
1012.9mb 83f 81f
6:50pm 3.5ft 8s 6s 7 9 mph 1013.5mb 83f 82f
5:50pm 3.5ft 8s 6s 7 9 mph 1014.2mb 84f 82f
4:50pm 3.5ft 8s 6s 7 9 mph 1014.8mb 83f 82f
3:50pm 3.5ft 9s 6s 4 7 mph 1015.2mb 83f 81f
2:50pm 3ft 8s 6s 7 9 mph 1015.3mb 83f 81f
1:50pm 3ft 8s 6s 9
mph
1015.2mb 83f 81f
12:50pm 2.5ft 8s 6s 9
mph
1014.9mb 82f 81f
11:50am 2.5ft 9s 6s 4 7 mph 1014.4mb 82f 81f
10:50am 2.5ft 9s 5s 4 7 mph 1014.3mb 82f 80f
9:50am 2.5ft 8s 5s 9 11 mph 1013.9mb 82f 80f
8:50am 3ft 9s 5s 9 11 mph 1013.8mb 82f 81f
7:50am 2.5ft 8s 5s 9 11 mph 1014mb 83f 81f
6:50am 3ft 8s 6s 9 11 mph 1014.3mb 83f 81f
5:50am 3.5ft 9s 6s 11 13 mph 1014.9mb 83f 81f
4:50am 3.5ft 9s 6s 11 13 mph 1015.4mb 83f 81f
3:50am 3ft 8s 6s 11 13 mph 1015.4mb 83f 82f
2:50am 3.5ft 9s 6s 13 16 mph 1015.2mb 83f 82f
1:50am 3ft 8s 6s 11 13 mph 1014.8mb 83f 82f
12:50am 3.5ft 8s 6s 11 13 mph 1014.5mb 83f 82f
Sun 04/20 11:50pm 3.5ft 8s 6s 11 13 mph 1014mb 83f 82f
10:50pm 3.5ft 9s 7s 9 11 mph 1013.7mb 83f 82f
9:50pm 3.5ft 8s 6s 9 11 mph 1013.8mb 83f 82f
8:50pm 3.5ft 8s 6s 9
mph
1014.3mb 84f 82f
7:50pm 3ft 8s 6s 9
mph
1014.7mb 83f 81f
6:50pm 3.5ft 8s 6s 9 11 mph 1015.1mb 83f 81f
5:50pm 4.5ft 8s 6s 9 11 mph 1015.9mb 83f 81f
4:50pm 4.5ft 8s 6s 9 11 mph 1016.4mb 83f 81f
3:50pm 3ft 8s 5s 9 11 mph 1016.5mb 83f 81f
2:50pm 3.5ft 8s 5s 11 13 mph 1016.4mb 82f 82f
1:50pm 3.5ft 8s 6s 11
mph
1016.2mb 82f 81f
12:50pm 3.5ft 8s 5s 11 13 mph 1015.7mb 82f 81f
11:50am 3ft 8s 5s 9 11 mph 1015mb 82f 81f
10:50am 2.5ft 8s 5s 11 13 mph 1014.4mb 82f 81f
9:50am 3ft 8s 5s 13 16 mph 1014mb 82f 81f
8:50am 3ft 8s 5s 11 13 mph 1013.7mb 82f 81f
7:50am 3.5ft 8s 5s 13
mph
1013.7mb 82f 81f
6:50am 3.5ft 8s 5s 13 16 mph 1014.2mb 82f 81f
5:50am 3.5ft 8s 5s 16 18 mph 1014.6mb 82f 81f
4:50am 3.5ft 8s 5s 16 18 mph 1015.2mb 82f 81f
3:50am 3ft 8s 5s 13 18 mph 1015.3mb 83f 81f
2:50am 3.5ft 8s 5s 16 18 mph 1015.1mb 83f 82f
1:50am 4.5ft 8s 6s 11 13 mph 1014.8mb 82f 81f
12:50am 4.5ft 8s 6s 11 13 mph 1014.3mb 83f 82f
Sat 04/19 11:50pm 4.5ft 8s 6s 13 16 mph 1013.8mb 83f 81f
10:50pm 4.5ft 8s 6s 11 13 mph 1013.2mb 83f 79f
9:50pm 4.5ft 8s 6s 9 11 mph 1013mb 83f 82f
8:50pm 4.5ft 8s 5s 11 13 mph 1012.9mb 83f 82f
7:50pm 4.5ft 8s 6s 11 13 mph 1013.4mb 83f 81f
6:50pm 4.5ft 7s 5s 11 13 mph 1014.3mb 83f 82f
5:50pm 4ft 8s 5s 11 13 mph 1014.8mb 83f 81f
4:50pm 4ft 8s 6s 11 13 mph 1015.4mb 83f 81f
3:50pm 4ft 8s 6s 11 13 mph 1015.6mb 83f 80f